Time;durP1;ratioP1;P1;durP2;ratioP2;P2;SDS_P1;SDS_P2;PMS_P1;PMS_P2;Temp;Humidity;BMP_temperature;BMP_pressure;BME280_temperature;BME280_humidity;BME280_pressure;Samples;Min_cycle;Max_cycle;Signal;HPM_P1;HPM_P2
2022/01/22 00:00:20;;;;;;;3.20;1.98;;;20.10;46.60;;;;;;5035718;28;20068;-72
2022/01/22 00:02:47;;;;;;;4.45;2.30;;;20.10;46.50;;;;;;5054508;28;20055;-73
2022/01/22 00:05:16;;;;;;;3.05;2.15;;;20.10;46.60;;;;;;5036724;28;20042;-72
2022/01/22 00:07:42;;;;;;;3.50;2.10;;;20.10;46.60;;;;;;5036613;28;20033;-72
2022/01/22 00:10:14;;;;;;;3.63;2.00;;;20.10;46.60;;;;;;5019534;28;20021;-72
2022/01/22 00:12:55;;;;;;;3.20;1.88;;;20.10;46.60;;;;;;5019329;28;20033;-71
2022/01/22 00:15:24;;;;;;;4.32;2.20;;;20.10;46.60;;;;;;5053623;28;20082;-72
2022/01/22 00:17:51;;;;;;;3.70;2.03;;;20.10;46.60;;;;;;5053593;28;20100;-72
2022/01/22 00:20:20;;;;;;;3.13;2.00;;;20.10;46.50;;;;;;5053117;28;20178;-73
2022/01/22 00:22:46;;;;;;;2.90;1.80;;;20.10;46.60;;;;;;5055314;28;20057;-72
2022/01/22 00:25:13;;;;;;;3.67;2.10;;;20.10;46.60;;;;;;5038018;28;20031;-72
2022/01/22 00:27:42;;;;;;;3.80;2.10;;;20.10;46.60;;;;;;5055241;28;20021;-72
2022/01/22 00:30:10;;;;;;;4.40;2.10;;;20.10;46.60;;;;;;5036582;28;20029;-72
2022/01/22 00:32:36;;;;;;;3.28;2.10;;;20.10;46.60;;;;;;5021650;28;20032;-71
2022/01/22 00:35:04;;;;;;;2.63;1.80;;;20.10;46.70;;;;;;5037638;28;20108;-71
2022/01/22 00:37:31;;;;;;;2.70;1.92;;;20.10;46.60;;;;;;5055038;28;20080;-72
2022/01/22 00:39:57;;;;;;;4.32;2.10;;;20.10;46.60;;;;;;5037020;28;20067;-72
2022/01/22 00:42:23;;;;;;;3.15;1.95;;;20.10;46.60;;;;;;5003977;28;20033;-72
2022/01/22 00:44:51;;;;;;;2.92;1.90;;;20.10;46.60;;;;;;5035213;28;20397;-72
2022/01/22 00:47:17;;;;;;;3.17;1.80;;;20.10;46.60;;;;;;5052917;28;20035;-72
2022/01/22 00:49:44;;;;;;;3.60;1.83;;;20.10;46.60;;;;;;5034792;28;20033;-73
2022/01/22 00:52:10;;;;;;;3.53;2.00;;;20.10;46.60;;;;;;5035089;28;20033;-72
2022/01/22 00:54:36;;;;;;;2.85;1.92;;;20.10;46.70;;;;;;5034786;28;20035;-72
2022/01/22 00:57:02;;;;;;;3.38;1.90;;;20.10;46.70;;;;;;5035016;28;20025;-72
2022/01/22 00:59:28;;;;;;;3.35;1.80;;;20.10;46.80;;;;;;5034369;28;20025;-72
2022/01/22 01:01:54;;;;;;;3.95;1.80;;;20.00;46.70;;;;;;5018432;28;20068;-72
2022/01/22 01:04:20;;;;;;;3.75;2.05;;;20.10;46.80;;;;;;5052340;28;20192;-72
2022/01/22 01:06:46;;;;;;;3.47;2.05;;;20.10;46.80;;;;;;5052960;28;20131;-72
2022/01/22 01:09:12;;;;;;;3.38;2.10;;;20.00;46.80;;;;;;5034124;28;20021;-72
2022/01/22 01:11:45;;;;;;;2.25;1.70;;;20.10;46.70;;;;;;5051801;28;20117;-72
2022/01/22 01:14:16;;;;;;;3.65;1.73;;;20.10;46.80;;;;;;5017917;28;20405;-72
2022/01/22 01:16:56;;;;;;;2.78;1.65;;;20.10;46.80;;;;;;5034634;28;20060;-72
2022/01/22 01:33:14;;;;;;;2.22;1.60;;;20.00;46.80;;;;;;5034324;28;20035;-72
2022/01/22 01:35:40;;;;;;;2.22;1.60;;;20.00;46.80;;;;;;5018485;28;20378;-72
2022/01/22 01:38:07;;;;;;;3.35;1.67;;;20.10;46.80;;;;;;5034534;28;20061;-72
2022/01/22 01:40:38;;;;;;;2.13;1.55;;;20.00;46.70;;;;;;5034271;28;20075;-72
2022/01/22 01:43:18;;;;;;;3.08;1.83;;;20.00;46.80;;;;;;5034264;28;20079;-72
2022/01/22 01:45:48;;;;;;;2.38;1.80;;;20.00;46.70;;;;;;5034838;28;20111;-72
2022/01/22 01:48:19;;;;;;;2.40;1.60;;;20.00;46.70;;;;;;5034545;28;20401;-72
2022/01/22 01:50:45;;;;;;;2.20;1.60;;;20.00;46.80;;;;;;5034223;28;20037;-72
2022/01/22 01:53:19;;;;;;;2.08;1.58;;;20.00;46.80;;;;;;5034207;28;20029;-72
2022/01/22 01:58:30;;;;;;;4.47;1.83;;;20.00;47.40;;;;;;5034243;28;20024;-72
2022/01/22 02:00:57;;;;;;;3.05;1.83;;;20.00;46.70;;;;;;5033799;28;20025;-72
2022/01/22 02:03:24;;;;;;;3.28;1.75;;;20.00;46.80;;;;;;5033918;28;20421;-72
2022/01/22 02:05:58;;;;;;;2.30;1.60;;;20.00;46.80;;;;;;5017657;28;20083;-72
2022/01/22 02:08:27;;;;;;;2.50;1.65;;;20.10;46.80;;;;;;5034074;28;20096;-72
2022/01/22 02:11:00;;;;;;;1.95;1.35;;;20.00;46.90;;;;;;5033853;28;20033;-72
2022/01/22 02:23:27;;;;;;;2.85;1.70;;;20.00;46.80;;;;;;5037209;28;20117;-72
2022/01/22 02:25:25;;;;;;;2.10;1.50;;;20.10;46.90;;;;;;5038179;28;20108;-72
2022/01/22 02:27:51;;;;;;;2.67;1.63;;;20.00;47.50;;;;;;5038001;28;20025;-72
2022/01/22 02:30:26;;;;;;;2.53;1.40;;;20.00;46.90;;;;;;5037740;28;20450;-72
2022/01/22 02:33:29;;;;;;;1.95;1.60;;;20.00;46.90;;;;;;5037826;28;20071;-72
2022/01/22 02:36:07;;;;;;;2.38;1.60;;;20.00;47.00;;;;;;5037949;28;20112;-72
2022/01/22 02:38:41;;;;;;;1.95;1.50;;;20.00;46.90;;;;;;5037841;28;20033;-72
2022/01/22 02:41:13;;;;;;;2.65;1.48;;;20.00;46.90;;;;;;5037456;28;20389;-72
2022/01/22 02:43:38;;;;;;;3.00;1.70;;;20.00;46.80;;;;;;5037592;28;20049;-72
2022/01/22 02:46:04;;;;;;;2.50;1.42;;;20.00;46.90;;;;;;5037678;28;20484;-72
2022/01/22 02:48:30;;;;;;;2.38;1.63;;;20.00;47.00;;;;;;5037715;28;20078;-72
2022/01/22 02:50:56;;;;;;;2.40;1.45;;;20.00;46.90;;;;;;5037298;28;20427;-72
2022/01/22 02:53:22;;;;;;;2.60;1.50;;;20.00;46.80;;;;;;5037649;28;20611;-72
2022/01/22 02:55:49;;;;;;;2.15;1.60;;;20.00;46.90;;;;;;5037486;28;20481;-72
2022/01/22 02:58:16;;;;;;;1.75;1.23;;;20.00;46.80;;;;;;5037533;28;20115;-72
2022/01/22 03:00:41;;;;;;;2.80;1.70;;;20.00;46.90;;;;;;5020758;28;20025;-72
2022/01/22 03:03:08;;;;;;;2.38;1.70;;;20.00;46.90;;;;;;5037203;28;20033;-71
2022/01/22 03:05:34;;;;;;;2.45;1.50;;;20.00;47.00;;;;;;5037345;28;20075;-72
2022/01/22 03:08:06;;;;;;;2.65;1.50;;;20.00;46.90;;;;;;5021048;28;20066;-72
2022/01/22 03:10:32;;;;;;;2.25;1.30;;;20.00;47.60;;;;;;5037281;28;20477;-72
2022/01/22 03:18:18;;;;;;;2.13;1.40;;;20.00;46.90;;;;;;5037444;28;20047;-72
2022/01/22 03:28:56;;;;;;;1.92;1.48;;;20.00;47.00;;;;;;5036877;28;20104;-72
2022/01/22 03:31:23;;;;;;;2.25;1.65;;;20.00;47.00;;;;;;5054458;28;20091;-72
2022/01/22 03:33:49;;;;;;;2.97;1.50;;;20.00;47.00;;;;;;5035439;28;20033;-72
2022/01/22 03:36:15;;;;;;;2.00;1.42;;;20.00;46.90;;;;;;5020131;28;20420;-72
2022/01/22 03:38:41;;;;;;;2.10;1.40;;;20.00;46.90;;;;;;5036620;28;20029;-72
2022/01/22 03:41:07;;;;;;;2.88;1.77;;;20.00;47.00;;;;;;5036027;28;20033;-72
2022/01/22 03:43:33;;;;;;;2.20;1.60;;;20.00;47.00;;;;;;5036456;28;20033;-72
2022/01/22 03:46:00;;;;;;;2.50;1.60;;;20.00;47.00;;;;;;5036282;28;20039;-72
2022/01/22 03:48:26;;;;;;;1.77;1.30;;;20.00;47.00;;;;;;5019970;28;20036;-72
2022/01/22 03:50:53;;;;;;;2.65;1.60;;;20.00;47.00;;;;;;5036033;28;20024;-72
2022/01/22 03:53:19;;;;;;;3.22;1.60;;;20.00;47.00;;;;;;5019944;28;20485;-72
2022/01/22 03:56:03;;;;;;;2.97;1.65;;;20.00;47.00;;;;;;5036566;28;20071;-72
2022/01/22 03:58:49;;;;;;;1.73;1.30;;;20.00;47.00;;;;;;5053991;28;20073;-72
2022/01/22 04:04:11;;;;;;;2.60;1.50;;;20.00;47.00;;;;;;5054157;28;20052;-72
2022/01/22 04:07:07;;;;;;;2.17;1.42;;;20.00;47.00;;;;;;5054053;28;20033;-72
2022/01/22 04:09:25;;;;;;;2.30;1.48;;;20.00;46.90;;;;;;5035924;28;20029;-72
2022/01/22 04:11:52;;;;;;;2.15;1.50;;;20.00;47.00;;;;;;5053832;28;20492;-72
2022/01/22 04:14:25;;;;;;;1.98;1.42;;;20.00;47.00;;;;;;5035884;28;20029;-72
2022/01/22 04:17:21;;;;;;;2.10;1.70;;;20.00;47.00;;;;;;5053499;28;20052;-72
2022/01/22 04:25:12;;;;;;;2.17;1.50;;;20.00;47.00;;;;;;5019201;28;20086;-72
2022/01/22 04:27:37;;;;;;;2.00;1.30;;;20.00;46.90;;;;;;5035614;28;20025;-72
2022/01/22 04:30:04;;;;;;;2.05;1.48;;;20.00;47.10;;;;;;5019219;28;20129;-72
2022/01/22 04:32:31;;;;;;;2.22;1.50;;;19.90;47.00;;;;;;5035484;28;20036;-72
2022/01/22 04:34:57;;;;;;;1.58;1.30;;;19.90;47.10;;;;;;5035612;28;20036;-72
2022/01/22 04:37:24;;;;;;;2.33;1.50;;;20.00;47.10;;;;;;5053258;28;20107;-72
2022/01/22 04:39:51;;;;;;;2.65;1.60;;;20.00;47.10;;;;;;5035479;28;20100;-72
2022/01/22 04:42:18;;;;;;;2.95;1.70;;;20.00;46.90;;;;;;5035444;28;20531;-72
2022/01/22 04:45:03;;;;;;;2.38;1.50;;;20.00;47.10;;;;;;5019050;28;20393;-72
2022/01/22 04:47:45;;;;;;;2.78;1.50;;;20.00;47.00;;;;;;5035734;28;20028;-72
2022/01/22 04:55:40;;;;;;;2.45;1.60;;;20.00;47.00;;;;;;5035146;28;20033;-73
2022/01/22 04:58:07;;;;;;;2.10;1.60;;;20.00;47.00;;;;;;5035288;28;20033;-72
2022/01/22 05:00:37;;;;;;;3.00;1.67;;;20.00;46.90;;;;;;5034937;28;20021;-73
2022/01/22 05:03:23;;;;;;;2.10;1.50;;;20.00;47.00;;;;;;5052685;28;20040;-73
2022/01/22 05:05:56;;;;;;;1.77;1.45;;;20.00;47.00;;;;;;5036102;28;20071;-72
2022/01/22 05:08:28;;;;;;;2.35;1.60;;;20.00;47.00;;;;;;5019781;28;20033;-73
2022/01/22 05:11:15;;;;;;;2.00;1.63;;;20.00;47.00;;;;;;5034014;28;20558;-73
2022/01/22 05:13:42;;;;;;;3.08;1.73;;;20.00;47.00;;;;;;5035009;28;20035;-72
2022/01/22 05:16:12;;;;;;;2.22;1.60;;;20.00;47.00;;;;;;5034848;28;20033;-72
2022/01/22 05:18:48;;;;;;;2.45;1.60;;;20.00;47.00;;;;;;5034955;28;20063;-72
2022/01/22 05:21:16;;;;;;;2.13;1.60;;;20.00;47.00;;;;;;5034508;28;20033;-72
2022/01/22 05:23:44;;;;;;;2.10;1.50;;;20.00;47.00;;;;;;5034751;28;20033;-72
2022/01/22 05:26:27;;;;;;;2.95;1.63;;;20.00;47.00;;;;;;5034516;28;20418;-73
2022/01/22 05:29:16;;;;;;;2.65;1.70;;;20.00;47.00;;;;;;5052608;28;20023;-72
2022/01/22 05:38:12;;;;;;;3.80;1.70;;;20.00;47.00;;;;;;4971188;28;20035;-72
2022/01/22 05:40:45;;;;;;;2.70;1.73;;;20.00;47.00;;;;;;4970895;28;20031;-72
2022/01/22 05:43:16;;;;;;;3.03;1.70;;;20.00;47.00;;;;;;5008211;28;20102;-72
2022/01/22 05:45:42;;;;;;;2.38;1.80;;;20.00;47.10;;;;;;5034350;28;20024;-72
2022/01/22 05:48:08;;;;;;;2.90;1.67;;;20.00;47.00;;;;;;5052144;28;20056;-72
2022/01/22 05:50:47;;;;;;;3.40;1.77;;;20.00;47.00;;;;;;5033814;28;20033;-72
2022/01/22 05:53:38;;;;;;;2.65;1.75;;;19.90;47.00;;;;;;5034119;28;20064;-72
2022/01/22 06:01:39;;;;;;;2.78;1.83;;;20.00;47.00;;;;;;5033961;28;20461;-72
2022/01/22 06:04:17;;;;;;;3.35;1.73;;;20.00;47.00;;;;;;5034180;28;20158;-72
2022/01/22 06:06:45;;;;;;;2.33;1.70;;;20.00;47.10;;;;;;5033950;28;20047;-73
2022/01/22 06:09:11;;;;;;;3.55;1.88;;;20.00;46.90;;;;;;5034077;28;20032;-73
2022/01/22 06:12:03;;;;;;;3.05;1.80;;;20.00;46.90;;;;;;5033869;28;20033;-73
2022/01/22 06:14:38;;;;;;;2.83;2.03;;;20.00;47.00;;;;;;5034054;28;20102;-73
2022/01/22 06:17:04;;;;;;;2.42;1.75;;;20.00;47.00;;;;;;5033928;28;20112;-72
2022/01/22 06:19:36;;;;;;;2.08;1.55;;;19.90;46.90;;;;;;5033714;28;20029;-73
2022/01/22 06:22:02;;;;;;;2.47;1.80;;;20.00;47.00;;;;;;5033927;28;20029;-73
2022/01/22 06:24:30;;;;;;;2.83;1.75;;;20.00;46.90;;;;;;5017855;28;20051;-72
2022/01/22 06:26:56;;;;;;;2.88;1.70;;;20.00;47.00;;;;;;5034030;28;20486;-73
2022/01/22 06:29:22;;;;;;;2.38;1.60;;;20.00;47.00;;;;;;5033569;28;20036;-73
2022/01/22 06:31:48;;;;;;;4.00;1.70;;;20.00;47.00;;;;;;5033815;28;20481;-73
2022/01/22 06:34:15;;;;;;;1.95;1.58;;;20.00;47.00;;;;;;5017161;28;20039;-73
2022/01/22 06:36:41;;;;;;;3.05;1.80;;;20.00;47.00;;;;;;5033885;28;20048;-73
2022/01/22 06:39:14;;;;;;;2.40;1.65;;;20.00;47.00;;;;;;5033572;28;20029;-73
2022/01/22 06:41:58;;;;;;;2.35;1.60;;;20.00;47.00;;;;;;5051698;28;20036;-73
2022/01/22 06:44:39;;;;;;;2.17;1.55;;;20.00;46.90;;;;;;5033704;28;20036;-73
2022/01/22 06:47:32;;;;;;;2.75;1.58;;;20.00;46.80;;;;;;5020316;28;20186;-73
2022/01/22 06:50:05;;;;;;;2.28;1.60;;;20.00;46.90;;;;;;5033362;28;20059;-73
2022/01/22 06:52:55;;;;;;;2.28;1.55;;;20.00;46.90;;;;;;5036156;28;20470;-73
2022/01/22 06:55:45;;;;;;;2.72;1.73;;;20.00;47.00;;;;;;5033856;28;20036;-73
2022/01/22 06:58:14;;;;;;;2.63;1.70;;;20.00;47.00;;;;;;5033788;28;20308;-73
2022/01/22 07:00:45;;;;;;;3.03;1.65;;;20.00;46.90;;;;;;5017689;28;20404;-73
2022/01/22 07:03:34;;;;;;;3.22;1.73;;;20.00;46.90;;;;;;5050855;28;20033;-73
2022/01/22 07:06:23;;;;;;;1.67;1.37;;;20.00;46.90;;;;;;5033697;28;20056;-73
2022/01/22 07:08:49;;;;;;;3.00;1.85;;;20.00;47.00;;;;;;5036924;28;20025;-73
2022/01/22 07:11:18;;;;;;;2.95;1.90;;;20.00;46.90;;;;;;5037096;28;20037;-73
2022/01/22 07:13:46;;;;;;;3.47;1.73;;;20.00;47.00;;;;;;5036990;28;20477;-73
2022/01/22 07:16:12;;;;;;;3.42;1.65;;;20.00;46.90;;;;;;5055108;28;20025;-73
2022/01/22 07:18:38;;;;;;;2.35;1.70;;;20.00;46.90;;;;;;5037092;28;20493;-73
2022/01/22 07:21:20;;;;;;;2.60;1.77;;;20.00;47.00;;;;;;5036796;28;20112;-73
2022/01/22 07:26:21;;;;;;;2.47;1.50;;;20.00;46.90;;;;;;5037051;28;20100;-73
2022/01/22 07:29:11;;;;;;;3.45;2.00;;;20.00;47.00;;;;;;5043797;28;20037;-73
2022/01/22 07:31:38;;;;;;;3.08;1.80;;;20.00;47.00;;;;;;5036836;28;20028;-73
2022/01/22 07:34:05;;;;;;;3.08;1.75;;;20.00;47.10;;;;;;5036593;28;20033;-73
2022/01/22 07:36:31;;;;;;;3.85;2.17;;;20.00;47.00;;;;;;5037301;28;20390;-73
2022/01/22 07:38:57;;;;;;;3.30;1.73;;;20.00;47.00;;;;;;5036727;28;20032;-73
2022/01/22 07:41:24;;;;;;;3.08;1.58;;;20.00;46.90;;;;;;5035953;28;20044;-73
2022/01/22 07:44:13;;;;;;;;;;;20.00;47.10;;;;;;5023953;28;20100;-73
2022/01/22 07:46:45;;;;;;;3.33;1.90;;;20.00;46.90;;;;;;5020961;28;19963;-73
2022/01/22 07:49:25;;;;;;;2.90;1.80;;;20.00;46.90;;;;;;5036255;28;20032;-72
2022/01/22 07:51:56;;;;;;;2.55;1.70;;;20.00;46.90;;;;;;5036454;28;20029;-73
2022/01/22 07:54:23;;;;;;;2.00;1.55;;;20.00;47.00;;;;;;5036567;28;20036;-72
2022/01/22 07:56:51;;;;;;;3.05;1.77;;;20.00;46.90;;;;;;5036872;28;20492;-73
2022/01/22 07:59:16;;;;;;;2.88;2.00;;;20.00;47.00;;;;;;5020283;28;20036;-73
2022/01/22 08:01:49;;;;;;;2.55;1.67;;;20.00;47.00;;;;;;5054413;28;20044;-73
2022/01/22 08:04:23;;;;;;;2.78;2.03;;;20.00;46.90;;;;;;5053772;28;20037;-72
2022/01/22 08:06:57;;;;;;;3.35;1.90;;;20.00;47.00;;;;;;5054010;28;20040;-73
2022/01/22 08:09:41;;;;;;;3.17;2.13;;;20.00;47.00;;;;;;5053681;28;20029;-72
2022/01/22 08:12:20;;;;;;;4.13;1.95;;;20.00;46.90;;;;;;5036263;28;20107;-72
2022/01/22 08:14:47;;;;;;;3.28;1.70;;;20.10;47.10;;;;;;5035971;28;20135;-72
2022/01/22 08:17:14;;;;;;;2.85;1.88;;;20.00;47.00;;;;;;5036208;28;20029;-72
2022/01/22 08:19:40;;;;;;;2.50;1.90;;;20.00;47.00;;;;;;5018490;28;20100;-72
2022/01/22 08:22:26;;;;;;;3.22;2.10;;;20.10;47.10;;;;;;5022506;28;20029;-72
2022/01/22 08:25:11;;;;;;;2.38;1.50;;;20.00;47.00;;;;;;5053374;28;20095;-73
2022/01/22 08:30:44;;;;;;;2.47;1.70;;;20.00;47.00;;;;;;4976967;28;20501;-73
2022/01/22 08:35:54;;;;;;;2.92;1.70;;;20.00;47.00;;;;;;5035737;28;20025;-73
2022/01/22 08:38:28;;;;;;;3.95;2.17;;;20.00;47.00;;;;;;5035767;28;20110;-73
2022/01/22 08:40:55;;;;;;;2.65;1.85;;;20.00;46.80;;;;;;5035351;28;20057;-72
2022/01/22 08:43:22;;;;;;;4.45;2.30;;;20.10;46.90;;;;;;5035729;28;20052;-72
2022/01/22 08:45:49;;;;;;;3.13;2.15;;;20.00;46.80;;;;;;5018887;28;20725;-73
2022/01/22 08:48:18;;;;;;;4.13;2.15;;;20.10;46.90;;;;;;5019060;28;20070;-72
2022/01/22 08:50:46;;;;;;;3.83;2.20;;;20.10;46.80;;;;;;5035038;28;20074;-73
2022/01/22 08:53:12;;;;;;;3.63;2.10;;;20.10;46.80;;;;;;5035348;28;20120;-72
2022/01/22 08:55:38;;;;;;;4.13;2.13;;;20.10;46.90;;;;;;5035350;28;20028;-72
2022/01/22 08:58:05;;;;;;;3.20;1.92;;;20.10;46.80;;;;;;5035670;28;20033;-72
2022/01/22 09:00:38;;;;;;;3.17;2.00;;;20.10;46.80;;;;;;5018518;28;20076;-72
2022/01/22 09:03:10;;;;;;;3.25;1.80;;;20.10;46.80;;;;;;5035057;28;20049;-72
2022/01/22 09:05:57;;;;;;;5.18;2.10;;;20.10;46.80;;;;;;5053123;28;20025;-73
2022/01/22 09:08:41;;;;;;;3.72;1.90;;;20.10;46.80;;;;;;5052900;28;20028;-73
2022/01/22 09:11:17;;;;;;;5.30;1.95;;;20.10;46.80;;;;;;5034527;28;20043;-73
2022/01/22 09:13:57;;;;;;;3.47;2.10;;;20.10;47.00;;;;;;5034749;28;20029;-73
2022/01/22 09:16:27;;;;;;;3.40;2.00;;;20.10;46.90;;;;;;5035121;28;20056;-73
2022/01/22 09:18:55;;;;;;;5.18;2.30;;;20.10;46.90;;;;;;5034807;28;20033;-73
2022/01/22 09:21:21;;;;;;;3.70;2.20;;;20.10;46.90;;;;;;5034547;28;20386;-73
2022/01/22 09:23:46;;;;;;;3.50;2.00;;;20.10;46.80;;;;;;5034690;28;20025;-73
2022/01/22 09:26:19;;;;;;;4.90;2.20;;;20.10;46.80;;;;;;5018273;28;20493;-72
2022/01/22 09:28:46;;;;;;;3.85;2.13;;;20.10;47.00;;;;;;5034740;28;20057;-74
2022/01/22 09:31:14;;;;;;;3.42;2.33;;;20.00;47.00;;;;;;5017122;28;20060;-73
2022/01/22 09:33:41;;;;;;;4.68;2.10;;;20.10;47.60;;;;;;5034516;28;20040;-73
2022/01/22 09:36:32;;;;;;;3.75;2.38;;;20.10;47.00;;;;;;5041541;28;20045;-73
2022/01/22 09:39:16;;;;;;;4.30;2.15;;;20.10;47.10;;;;;;5052473;28;20049;-73
2022/01/22 09:42:05;;;;;;;4.15;2.17;;;20.10;47.00;;;;;;5041723;28;20144;-73
2022/01/22 09:44:49;;;;;;;4.05;2.47;;;20.10;47.00;;;;;;5052228;28;20032;-73
2022/01/22 09:47:36;;;;;;;3.38;2.20;;;20.10;47.00;;;;;;5034584;28;20082;-73
2022/01/22 09:50:27;;;;;;;4.60;2.35;;;20.10;46.90;;;;;;5034114;28;20397;-73
2022/01/22 09:53:12;;;;;;;3.67;2.15;;;20.10;46.90;;;;;;5052082;28;20092;-72
2022/01/22 09:56:04;;;;;;;3.78;2.10;;;20.10;46.90;;;;;;5023666;28;20489;-73
2022/01/22 09:59:00;;;;;;;3.00;1.80;;;20.10;46.90;;;;;;5005680;28;20083;-73
2022/01/22 10:02:07;;;;;;;4.30;2.33;;;20.10;46.90;;;;;;4980550;28;20454;-73
2022/01/22 10:04:45;;;;;;;4.18;1.85;;;20.10;46.90;;;;;;5034067;28;20029;-74
2022/01/22 10:07:30;;;;;;;4.43;2.05;;;20.10;46.90;;;;;;5051842;28;20082;-73
2022/01/22 10:10:14;;;;;;;4.65;2.60;;;20.10;46.80;;;;;;5051650;28;20087;-73
2022/01/22 10:13:00;;;;;;;4.68;2.25;;;20.10;46.90;;;;;;5034244;28;20033;-73
2022/01/22 10:15:35;;;;;;;4.68;2.22;;;20.10;46.90;;;;;;5052257;28;20033;-73
2022/01/22 10:18:04;;;;;;;3.58;2.30;;;20.10;46.80;;;;;;5034339;28;20044;-73
2022/01/22 10:20:36;;;;;;;4.25;2.30;;;20.10;46.60;;;;;;5051349;28;20025;-71
2022/01/22 10:23:09;;;;;;;6.85;2.53;;;20.10;46.60;;;;;;5051921;28;20025;-71
2022/01/22 10:25:41;;;;;;;4.18;2.35;;;20.10;46.80;;;;;;5051770;28;20036;-73
2022/01/22 10:28:17;;;;;;;3.70;2.20;;;20.10;46.70;;;;;;5051849;28;20120;-73
2022/01/22 10:30:45;;;;;;;3.53;2.40;;;20.10;46.80;;;;;;5051573;28;20025;-73
2022/01/22 10:33:30;;;;;;;5.07;2.75;;;20.10;46.60;;;;;;5033736;28;20033;-73
2022/01/22 10:36:20;;;;;;;3.80;2.28;;;20.10;46.50;;;;;;5051587;28;20033;-73
2022/01/22 10:39:09;;;;;;;3.22;1.80;;;20.10;46.80;;;;;;5051631;28;20200;-73
2022/01/22 10:41:38;;;;;;;4.10;2.30;;;20.10;46.70;;;;;;5051696;28;20017;-73
2022/01/22 10:44:08;;;;;;;2.88;1.90;;;20.10;46.70;;;;;;5055496;28;20068;-73
2022/01/22 10:47:03;;;;;;;3.45;2.17;;;20.20;46.80;;;;;;5055494;28;20036;-73
2022/01/22 10:49:29;;;;;;;5.20;2.55;;;20.10;46.70;;;;;;5055262;28;20103;-73
2022/01/22 10:52:02;;;;;;;4.05;2.28;;;20.10;46.70;;;;;;5037951;28;20059;-73
2022/01/22 10:54:31;;;;;;;3.95;2.10;;;20.20;46.80;;;;;;5055372;28;20028;-73
2022/01/22 10:57:23;;;;;;;4.65;2.38;;;20.10;46.70;;;;;;5037342;28;20106;-74
2022/01/22 10:59:51;;;;;;;3.40;2.13;;;20.10;46.70;;;;;;5054798;28;20028;-73
2022/01/22 11:02:18;;;;;;;4.20;2.28;;;20.20;46.80;;;;;;5037043;28;20111;-73
2022/01/22 11:04:45;;;;;;;3.72;2.00;;;20.10;46.70;;;;;;5054937;28;20037;-73
2022/01/22 11:07:19;;;;;;;3.28;2.08;;;20.20;46.90;;;;;;5037154;28;20162;-73
2022/01/22 11:09:46;;;;;;;3.25;2.10;;;20.10;46.60;;;;;;5054628;28;20060;-74
2022/01/22 11:12:12;;;;;;;3.55;2.20;;;20.10;46.70;;;;;;5036871;28;20437;-74
2022/01/22 11:14:50;;;;;;;3.72;2.17;;;20.10;46.70;;;;;;5054701;28;20082;-73
2022/01/22 11:17:21;;;;;;;3.75;2.15;;;20.10;46.80;;;;;;5036595;28;20029;-74
2022/01/22 11:19:49;;;;;;;4.45;2.28;;;20.10;46.70;;;;;;5020167;28;20031;-74
2022/01/22 11:22:19;;;;;;;3.45;2.10;;;20.10;46.70;;;;;;5020569;28;20033;-74
2022/01/22 11:24:51;;;;;;;3.65;1.90;;;20.10;46.70;;;;;;5033240;28;20465;-73
2022/01/22 11:27:22;;;;;;;3.83;2.20;;;20.10;46.70;;;;;;5054503;28;20056;-74
2022/01/22 11:29:56;;;;;;;4.07;2.10;;;20.10;46.80;;;;;;5020070;28;20037;-74
2022/01/22 11:32:28;;;;;;;4.13;2.35;;;20.10;46.80;;;;;;5057959;28;20544;-74
2022/01/22 11:35:03;;;;;;;3.97;2.03;;;20.10;46.80;;;;;;5038523;28;20505;-74
2022/01/22 11:37:53;;;;;;;4.00;2.08;;;20.10;46.80;;;;;;5039431;28;20032;-73
2022/01/22 11:40:27;;;;;;;3.03;2.00;;;20.10;46.80;;;;;;5056312;28;20473;-74
2022/01/22 11:43:05;;;;;;;3.83;2.20;;;20.10;46.80;;;;;;5038789;28;20033;-73
2022/01/22 11:45:38;;;;;;;3.35;2.05;;;20.10;46.80;;;;;;5039470;28;20063;-73
2022/01/22 11:48:24;;;;;;;3.40;2.00;;;20.10;46.80;;;;;;5056907;28;20056;-74
2022/01/22 11:50:53;;;;;;;3.92;2.05;;;20.10;46.80;;;;;;5039054;28;20037;-73
2022/01/22 11:53:37;;;;;;;3.53;2.15;;;20.10;46.80;;;;;;5038730;28;20071;-74
2022/01/22 11:56:13;;;;;;;3.33;1.85;;;20.10;46.80;;;;;;5057070;28;20031;-74
2022/01/22 11:58:58;;;;;;;3.30;2.10;;;20.10;46.80;;;;;;5038689;28;20025;-74
2022/01/22 12:01:45;;;;;;;4.07;1.98;;;20.10;46.70;;;;;;5038438;28;20040;-73
2022/01/22 12:04:14;;;;;;;2.88;1.90;;;20.10;46.80;;;;;;5056370;28;20040;-73
2022/01/22 12:07:04;;;;;;;3.63;2.00;;;20.10;46.80;;;;;;5056550;28;20100;-74
2022/01/22 12:15:09;;;;;;;3.35;1.90;;;20.20;46.70;;;;;;5038598;28;19913;-72
2022/01/22 12:17:50;;;;;;;3.28;1.90;;;20.20;46.70;;;;;;5038204;28;20052;-72
2022/01/22 12:23:42;;;;;;;2.80;1.80;;;20.20;46.80;;;;;;5014935;28;20036;-72
2022/01/22 12:26:08;;;;;;;2.72;1.98;;;20.20;46.70;;;;;;5055632;28;20036;-72
2022/01/22 12:28:42;;;;;;;4.50;2.10;;;20.20;46.70;;;;;;5055247;28;20021;-72
2022/01/22 12:31:16;;;;;;;3.83;2.20;;;20.20;46.70;;;;;;5054725;28;20033;-72
2022/01/22 12:33:47;;;;;;;3.13;2.00;;;20.20;46.80;;;;;;5055067;28;20020;-72
2022/01/22 12:36:27;;;;;;;3.38;2.03;;;20.20;46.70;;;;;;5055832;28;20033;-72
2022/01/22 12:39:16;;;;;;;3.65;1.95;;;20.20;46.80;;;;;;5055268;28;20017;-72
2022/01/22 12:41:51;;;;;;;4.28;2.00;;;20.20;46.80;;;;;;5037675;28;20025;-73
2022/01/22 12:44:33;;;;;;;11.57;4.47;;;20.20;46.80;;;;;;5055056;28;20025;-72
2022/01/22 12:47:06;;;;;;;10.10;3.40;;;20.10;47.20;;;;;;5055308;28;20083;-71
2022/01/22 12:49:34;;;;;;;9.10;4.20;;;20.10;47.60;;;;;;5003853;28;20037;-82
2022/01/22 12:52:13;;;;;;;14.30;4.82;;;19.90;45.50;;;;;;5055702;28;20037;-83
2022/01/22 12:54:46;;;;;;;14.23;3.35;;;19.70;40.30;;;;;;5055456;28;20420;-83
2022/01/22 12:57:14;;;;;;;21.52;3.72;;;19.40;37.40;;;;;;5038068;28;20320;-73
2022/01/22 12:59:54;;;;;;;15.07;3.78;;;19.10;37.50;;;;;;5056102;28;20028;-72
2022/01/22 13:02:41;;;;;;;16.27;3.53;;;19.30;38.00;;;;;;5019209;28;20119;-72
2022/01/22 13:05:10;;;;;;;11.88;2.85;;;19.40;38.60;;;;;;5054117;28;20025;-72
2022/01/22 13:08:08;;;;;;;12.40;2.65;;;19.40;39.30;;;;;;5010882;28;20037;-72
2022/01/22 13:10:57;;;;;;;14.23;3.00;;;19.60;38.60;;;;;;5037541;28;20563;-70
2022/01/22 13:13:23;;;;;;;22.55;3.20;;;19.60;39.10;;;;;;5037077;28;20025;-70
2022/01/22 13:16:03;;;;;;;11.25;2.83;;;19.70;38.70;;;;;;5056704;28;20036;-70
2022/01/22 13:18:58;;;;;;;22.58;2.63;;;19.70;39.20;;;;;;5038431;28;20057;-71
2022/01/22 13:21:27;;;;;;;15.02;2.55;;;19.90;40.40;;;;;;5038324;28;20025;-70
2022/01/22 13:24:02;;;;;;;13.07;2.65;;;20.00;40.80;;;;;;5056781;28;20476;-70
2022/01/22 13:26:47;;;;;;;14.10;2.70;;;20.00;41.40;;;;;;5021308;28;20109;-71
2022/01/22 13:29:29;;;;;;;14.27;2.65;;;20.10;42.10;;;;;;5038254;28;20508;-73
2022/01/22 13:31:59;;;;;;;15.75;3.50;;;20.10;42.30;;;;;;5038031;28;20041;-72
2022/01/22 13:35:04;;;;;;;11.35;4.25;;;20.10;42.60;;;;;;5018388;28;20110;-72
2022/01/22 13:47:40;;;;;;;18.00;5.05;;;20.40;44.40;;;;;;5055710;28;20033;-73
2022/01/22 13:47:55;;;;;;;20.17;5.03;;;20.40;45.60;;;;;;5053171;28;20035;-74
2022/01/22 13:50:22;;;;;;;15.07;4.80;;;20.40;45.50;;;;;;5038247;28;20190;-73
2022/01/22 13:52:51;;;;;;;18.23;4.10;;;20.40;45.50;;;;;;5013465;28;20053;-72
2022/01/22 13:55:17;;;;;;;19.67;4.38;;;20.40;45.50;;;;;;5035699;28;20121;-73
2022/01/22 13:57:44;;;;;;;17.25;4.47;;;20.40;45.50;;;;;;5050935;28;20393;-73
2022/01/22 14:00:16;;;;;;;18.75;4.50;;;20.40;45.70;;;;;;5034745;28;20036;-73
2022/01/22 14:05:31;;;;;;;16.90;4.15;;;20.40;46.20;;;;;;5054986;28;20033;-74
2022/01/22 14:08:07;;;;;;;17.35;4.95;;;20.40;46.20;;;;;;5037607;28;20032;-73
2022/01/22 14:10:34;;;;;;;17.35;4.55;;;20.40;46.30;;;;;;5037619;28;20033;-72
2022/01/22 14:13:11;;;;;;;15.27;4.07;;;20.40;46.40;;;;;;5037386;28;20032;-72
2022/01/22 14:15:42;;;;;;;10.40;4.10;;;20.40;46.50;;;;;;5054220;28;20068;-72
2022/01/22 14:18:20;;;;;;;12.35;3.30;;;20.40;46.60;;;;;;5036823;28;20071;-72
2022/01/22 14:21:09;;;;;;;14.95;4.05;;;20.40;46.70;;;;;;5020566;28;20100;-72
2022/01/22 14:23:36;;;;;;;11.93;3.60;;;20.40;47.00;;;;;;5031879;28;20060;-72
2022/01/22 14:26:07;;;;;;;16.15;4.43;;;20.40;46.50;;;;;;5051487;28;20271;-72
2022/01/22 14:28:44;;;;;;;12.98;4.07;;;20.40;47.00;;;;;;5035124;28;20469;-72
2022/01/22 14:31:24;;;;;;;14.50;3.80;;;20.30;46.90;;;;;;5017241;28;20060;-72
2022/01/22 14:33:50;;;;;;;19.95;4.00;;;20.30;46.90;;;;;;5051438;28;20025;-72
2022/01/22 14:36:22;;;;;;;12.50;4.00;;;20.40;47.10;;;;;;5053681;28;20040;-71
2022/01/22 14:47:03;;;;;;;8.32;3.38;;;20.50;47.00;;;;;;5033608;28;20144;-71
2022/01/22 14:49:31;;;;;;;11.70;3.55;;;20.60;47.10;;;;;;5033336;28;20025;-71
2022/01/22 14:51:58;;;;;;;17.25;3.70;;;20.70;47.50;;;;;;5052095;28;20477;-69
2022/01/22 14:54:25;;;;;;;13.18;3.70;;;20.70;47.70;;;;;;5017136;28;20041;-70
2022/01/22 14:56:51;;;;;;;14.43;4.00;;;20.70;47.60;;;;;;5015344;28;20025;-71